KMHE

Mitchell Municipal Airport

Mitchell, South Dakota, USA
METAR KMHE 191900Z AUTO 04007KT 7SM -TSRA FEW006 SCT045 BKN090 19/18 A2990 RMK AO2 LTG DSNT SE-W RAB1856 P0001 T01940183
Observed Flight Rules
Sep-19 @ 19:00 UTC (12 minutes ago) Visual Flight Rules
Wind Visibility Clouds Conditions
40° at 7 knots 7 miles
  • Few at 600' AGL
  • Scattered at 4,500' AGL
  • Broken at 9,000' AGL
  • Light Thunderstorm
  • Light Rain
Temperatures Readings Precipitation
Current 19°C / 66°F
Dewpoint 18°C / 64°F
Humidity 94%
Altimeter 29.9" Hg
Pressure 1013 hPa
Elevation 397
Current Rain 0.01
METAR KMHE 191900Z AUTO 04007KT 7SM -TSRA FEW006 SCT045 BKN090 19/18 A2990 RMK AO2 LTG DSNT SE-W RAB1856 P0001 T01940183
Observed Flight Rules
Sep-19 @ 19:00 UTC
(12 minutes ago)
VFR
Wind Visibility
40° at 7 knots 7 miles
Clouds
  • Few at 600' AGL
  • Scattered at 4,500' AGL
  • Broken at 9,000' AGL
Conditions
  • Light Thunderstorm
  • Light Rain
Temperature Dewpoint
19°C / 66°F 18°C / 64°F
Humidity Altimeter Pressure
94% 29.9" Hg 1013 hPa
Current Rain
0.01